createdAt,value
2017-05-02T00:00:17.903Z,8.14
2017-05-02T00:00:58.349Z,8.17
2017-05-02T00:01:41.561Z,8.11
2017-05-02T00:02:22.119Z,8.08
2017-05-02T00:03:02.439Z,8.09
2017-05-02T00:03:42.965Z,8.14
2017-05-02T00:04:23.354Z,8.16
2017-05-02T00:05:05.497Z,8.2
2017-05-02T00:05:46.411Z,8.16
2017-05-02T00:06:26.909Z,8.14
2017-05-02T00:07:08.205Z,8.14
2017-05-02T00:07:49.458Z,8.13
2017-05-02T00:08:29.899Z,8.14
2017-05-02T00:09:10.320Z,8.11
2017-05-02T00:09:50.703Z,8.18
2017-05-02T00:10:31.163Z,8.09
2017-05-02T00:11:11.688Z,8.23
2017-05-02T00:11:52.040Z,8.13
2017-05-02T00:12:33.960Z,8.14
2017-05-02T00:13:14.369Z,8.18
2017-05-02T00:13:54.751Z,8.14
2017-05-02T00:14:35.916Z,8.2
2017-05-02T00:15:16.348Z,8.16
2017-05-02T00:15:56.762Z,8.14
2017-05-02T00:16:38.560Z,8.11
2017-05-02T00:17:18.953Z,8.14
2017-05-02T00:18:00.377Z,8.16
2017-05-02T00:18:41.553Z,8.2
2017-05-02T00:19:22.001Z,8.14
2017-05-02T00:20:02.448Z,8.13
2017-05-02T00:20:42.828Z,8.17
2017-05-02T00:21:23.333Z,8.18
2017-05-02T00:22:03.686Z,8.16
2017-05-02T00:22:44.136Z,8.18
2017-05-02T00:23:24.505Z,8.26
2017-05-02T00:24:05.410Z,8.09
2017-05-02T00:24:45.886Z,8.11
2017-05-02T00:25:27.263Z,8.09
2017-05-02T00:26:07.653Z,8.09
2017-05-02T00:26:48.980Z,8.14
2017-05-02T00:27:30.012Z,8.14
2017-05-02T00:28:10.415Z,8.13
2017-05-02T00:28:50.854Z,8.16
2017-05-02T00:29:32.925Z,8.14
2017-05-02T00:30:14.088Z,8.16
2017-05-02T00:30:54.594Z,8.14
2017-05-02T00:31:35.627Z,8.16
2017-05-02T00:32:15.970Z,8.14
2017-05-02T00:32:57.042Z,8.18
2017-05-02T00:33:37.437Z,8.14
2017-05-02T00:34:18.716Z,8.16
2017-05-02T00:35:00.010Z,8.18
2017-05-02T00:35:40.473Z,8.18
2017-05-02T00:36:20.857Z,8.17
2017-05-02T00:37:01.273Z,8.05
2017-05-02T00:37:42.458Z,8.14
2017-05-02T00:38:24.402Z,8.18
2017-05-02T00:39:06.454Z,8.13
2017-05-02T00:39:46.870Z,8.13
2017-05-02T00:40:28.009Z,8.05
2017-05-02T00:41:08.985Z,8.11
2017-05-02T00:41:50.519Z,8.13
2017-05-02T00:42:30.924Z,8.13
2017-05-02T00:43:11.290Z,8.14
2017-05-02T00:43:52.721Z,8.11
2017-05-02T00:44:33.724Z,8.13
2017-05-02T00:45:14.149Z,8.14
2017-05-02T00:45:54.561Z,8.21
2017-05-02T00:46:36.566Z,8.2
2017-05-02T00:47:17.799Z,8.11
2017-05-02T00:47:58.184Z,8.08
2017-05-02T00:48:38.590Z,8.11
2017-05-02T00:49:19.039Z,8.16
2017-05-02T00:49:59.501Z,8.17
2017-05-02T00:50:41.603Z,8.11
2017-05-02T00:51:22.939Z,8.18
2017-05-02T00:52:03.335Z,8.18
2017-05-02T00:52:43.780Z,8.11
2017-05-02T00:53:24.190Z,8.16
2017-05-02T00:54:04.598Z,8.09
2017-05-02T00:54:44.983Z,8.2
2017-05-02T00:55:26.122Z,8.18
2017-05-02T00:56:07.031Z,8.17
2017-05-02T00:56:47.429Z,8.16
2017-05-02T00:57:28.682Z,8.26
2017-05-02T00:58:09.083Z,8.17
2017-05-02T00:58:49.512Z,8.2
2017-05-02T00:59:30.013Z,8.23
2017-05-02T01:00:10.391Z,8.14
2017-05-02T01:00:51.451Z,8.14
2017-05-02T01:01:33.557Z,8.18
2017-05-02T01:02:13.974Z,8.18
2017-05-02T01:02:54.431Z,8.18
2017-05-02T01:03:34.822Z,8.13
2017-05-02T01:04:16.434Z,8.16
2017-05-02T01:04:56.879Z,8.09
2017-05-02T01:05:37.537Z,8.17
2017-05-02T01:06:17.936Z,8.23
2017-05-02T01:06:59.054Z,8.14
2017-05-02T01:07:40.406Z,8.14
2017-05-02T01:08:20.785Z,8.09
2017-05-02T01:09:01.168Z,8.16
2017-05-02T01:09:42.333Z,8.13
2017-05-02T01:10:22.818Z,8.11
2017-05-02T01:11:03.208Z,8.14
2017-05-02T01:11:43.670Z,8.17
2017-05-02T01:12:24.125Z,8.2
2017-05-02T01:13:04.555Z,8.14
2017-05-02T01:13:44.919Z,8.14
2017-05-02T01:14:25.376Z,8.16
2017-05-02T01:15:05.703Z,8.2
2017-05-02T01:15:47.547Z,8.2
2017-05-02T01:16:27.922Z,8.27
2017-05-02T01:17:09.145Z,8.28
2017-05-02T01:17:49.576Z,8.28
2017-05-02T01:18:30.673Z,8.2
2017-05-02T01:19:11.018Z,8.23
2017-05-02T01:19:51.517Z,8.28
2017-05-02T01:20:32.347Z,8.21
2017-05-02T01:21:12.767Z,8.18
2017-05-02T01:21:54.711Z,8.24
2017-05-02T01:22:35.103Z,8.23
2017-05-02T01:23:15.572Z,8.27
2017-05-02T01:23:56.427Z,8.21
2017-05-02T01:24:37.118Z,8.23
2017-05-02T01:25:17.762Z,8.26
2017-05-02T01:25:58.171Z,8.2
2017-05-02T01:26:38.690Z,8.23
2017-05-02T01:27:19.060Z,8.24
2017-05-02T01:27:59.448Z,8.2
2017-05-02T01:28:39.933Z,8.24
2017-05-02T01:29:20.276Z,8.2
2017-05-02T01:30:00.730Z,8.23
2017-05-02T01:30:41.196Z,8.18
2017-05-02T01:31:21.553Z,8.26
2017-05-02T01:32:01.960Z,8.2
2017-05-02T01:32:42.384Z,8.23
2017-05-02T01:33:22.768Z,8.21
2017-05-02T01:34:03.306Z,8.24
2017-05-02T01:34:43.576Z,8.16
2017-05-02T01:35:24.631Z,8.18
2017-05-02T01:36:05.094Z,8.27
2017-05-02T01:36:47.111Z,8.27
2017-05-02T01:37:27.550Z,8.18
2017-05-02T01:38:07.953Z,8.18
2017-05-02T01:38:48.354Z,8.21
2017-05-02T02:01:51.612Z,8.26
2017-05-02T02:02:34.046Z,8.28
2017-05-02T02:03:14.500Z,8.26
2017-05-02T02:03:55.637Z,8.21
2017-05-02T02:04:36.069Z,8.21
2017-05-02T02:05:16.512Z,8.2
2017-05-02T02:05:56.863Z,8.21
2017-05-02T02:06:37.273Z,8.23
2017-05-02T02:07:17.643Z,8.27
2017-05-02T02:07:58.056Z,8.23
2017-05-02T02:08:38.536Z,8.24
2017-05-02T02:09:18.964Z,8.23
2017-05-02T02:09:59.754Z,8.28
2017-05-02T02:10:40.507Z,8.21
2017-05-02T02:11:20.881Z,8.21
2017-05-02T02:12:01.309Z,8.2
2017-05-02T02:12:41.844Z,8.27
2017-05-02T02:13:22.271Z,8.23
2017-05-02T02:14:03.487Z,8.23
2017-05-02T02:14:43.941Z,8.23
2017-05-02T02:15:24.300Z,8.23
2017-05-02T02:16:04.711Z,8.18
2017-05-02T02:16:45.126Z,8.28
2017-05-02T02:17:25.841Z,8.2
2017-05-02T02:18:06.233Z,8.23
2017-05-02T02:18:46.634Z,8.28
2017-05-02T02:19:29.614Z,8.27
2017-05-02T02:20:10.047Z,8.26
2017-05-02T02:20:50.452Z,8.2
2017-05-02T02:21:30.855Z,8.32
2017-05-02T02:22:11.314Z,8.2
2017-05-02T02:22:51.653Z,8.27
2017-05-02T02:23:32.089Z,8.2
2017-05-02T02:24:12.569Z,8.34
2017-05-02T02:24:53.081Z,8.27
2017-05-02T02:25:33.524Z,8.24
2017-05-02T02:26:13.914Z,8.31
2017-05-02T02:26:54.601Z,8.27
2017-05-02T02:27:35.033Z,8.28
2017-05-02T02:28:15.383Z,8.28
2017-05-02T02:28:55.825Z,8.28
2017-05-02T02:29:36.164Z,8.31
2017-05-02T02:30:16.609Z,8.28
2017-05-02T02:30:57.041Z,8.28
2017-05-02T02:31:38.310Z,8.32
2017-05-02T02:32:18.740Z,8.31
2017-05-02T02:32:59.134Z,8.26
2017-05-02T02:33:39.601Z,8.31
2017-05-02T02:34:20.014Z,8.28
2017-05-02T02:35:00.445Z,8.27
2017-05-02T02:35:41.722Z,8.31
2017-05-02T02:36:22.749Z,8.35
2017-05-02T02:37:03.118Z,8.32
2017-05-02T02:37:43.540Z,8.28
2017-05-02T02:38:23.939Z,8.28
2017-05-02T02:39:04.328Z,8.34
2017-05-02T02:39:44.833Z,8.32
2017-05-02T02:40:25.276Z,8.31
2017-05-02T02:41:05.731Z,8.39
2017-05-02T02:41:46.126Z,8.28
2017-05-02T02:42:27.527Z,8.27
2017-05-02T02:43:07.948Z,8.31
2017-05-02T02:43:49.217Z,8.34
2017-05-02T02:44:29.629Z,8.28
2017-05-02T02:45:10.024Z,8.31
2017-05-02T02:45:50.472Z,8.34
2017-05-02T02:46:30.833Z,8.28
2017-05-02T02:47:11.204Z,8.32
2017-05-02T02:47:51.658Z,8.32
2017-05-02T02:48:32.055Z,8.28
2017-05-02T02:49:12.488Z,8.32
2017-05-02T02:49:52.854Z,8.34
2017-05-02T02:50:33.223Z,8.32
2017-05-02T02:51:13.634Z,8.34
2017-05-02T02:51:54.003Z,8.32
2017-05-02T02:52:34.458Z,8.2
2017-05-02T02:53:14.892Z,8.31
2017-05-02T02:53:55.247Z,8.31
2017-05-02T02:54:35.645Z,8.35
2017-05-02T02:55:16.039Z,8.32
2017-05-02T02:55:57.320Z,8.27
2017-05-02T02:56:37.892Z,8.31
2017-05-02T02:57:18.290Z,8.28
2017-05-02T02:57:58.807Z,8.31
2017-05-02T02:58:39.189Z,8.34
2017-05-02T02:59:19.554Z,8.31
2017-05-02T02:59:59.981Z,8.2
2017-05-02T03:00:40.358Z,8.18
2017-05-02T03:01:20.775Z,8.18
2017-05-02T03:02:01.220Z,8.27
2017-05-02T03:02:41.602Z,8.28
2017-05-02T03:03:22.013Z,8.28
2017-05-02T03:04:02.427Z,8.21
2017-05-02T03:04:42.818Z,8.32
2017-05-02T03:05:23.213Z,8.31
2017-05-02T03:06:03.614Z,8.34
2017-05-02T03:06:44.016Z,8.23
2017-05-02T03:07:24.409Z,8.28
2017-05-02T03:08:04.838Z,8.31
2017-05-02T03:08:45.266Z,8.31
2017-05-02T03:09:25.662Z,8.23
2017-05-02T03:10:06.037Z,8.31
2017-05-02T03:10:46.461Z,8.31
2017-05-02T03:11:27.597Z,8.31
2017-05-02T03:12:08.009Z,8.28
2017-05-02T03:12:48.402Z,8.23
2017-05-02T03:13:28.846Z,8.34
2017-05-02T03:14:09.643Z,8.32
2017-05-02T03:14:50.103Z,8.31
2017-05-02T03:15:30.593Z,8.34
2017-05-02T03:16:10.989Z,8.31
2017-05-02T03:16:51.627Z,8.28
2017-05-02T03:17:32.091Z,8.31
2017-05-02T03:18:12.834Z,8.34
2017-05-02T03:18:54.344Z,8.34
2017-05-02T03:19:34.919Z,8.35
2017-05-02T03:20:15.340Z,8.28
2017-05-02T03:20:55.774Z,8.34
2017-05-02T03:21:36.166Z,8.27
2017-05-02T03:22:16.596Z,8.34
2017-05-02T03:22:57.066Z,8.38
2017-05-02T03:23:37.612Z,8.36
2017-05-02T03:24:18.676Z,8.31
2017-05-02T03:24:59.081Z,8.41
2017-05-02T03:25:39.521Z,8.28
2017-05-02T03:26:20.333Z,8.36
2017-05-02T03:27:00.631Z,8.35
2017-05-02T03:27:41.038Z,8.34
2017-05-02T03:28:21.525Z,8.39
2017-05-02T03:29:01.868Z,8.31
2017-05-02T03:29:42.314Z,8.35
2017-05-02T03:30:25.148Z,8.28
2017-05-02T03:31:05.522Z,8.34
2017-05-02T03:31:45.959Z,8.34
2017-05-02T03:32:26.324Z,8.32
2017-05-02T03:33:07.699Z,8.31
2017-05-02T03:33:48.134Z,8.34
2017-05-02T03:34:28.584Z,8.41
2017-05-02T03:35:09.053Z,8.38
2017-05-02T03:35:49.456Z,8.28
2017-05-02T03:36:29.880Z,8.35
2017-05-02T03:37:10.218Z,8.35
2017-05-02T03:37:50.729Z,8.32
2017-05-02T03:38:31.111Z,8.28
2017-05-02T03:39:11.481Z,8.31
2017-05-02T03:39:51.916Z,8.32
2017-05-02T03:40:32.398Z,8.24
2017-05-02T03:41:13.331Z,8.32
2017-05-02T03:41:55.245Z,8.34
2017-05-02T03:42:36.259Z,8.28
2017-05-02T03:43:16.837Z,8.27
2017-05-02T03:43:57.226Z,8.35
2017-05-02T03:44:38.756Z,8.35
2017-05-02T03:45:19.171Z,8.32
2017-05-02T03:45:59.593Z,8.21
2017-05-02T03:46:40.017Z,8.21
2017-05-02T03:47:20.457Z,8.34
2017-05-02T03:48:00.906Z,8.28
2017-05-02T03:48:41.371Z,8.35
2017-05-02T03:49:21.835Z,8.32
2017-05-02T03:50:02.218Z,8.31
2017-05-02T03:50:42.614Z,8.27
2017-05-02T03:51:23.075Z,8.35
2017-05-02T03:52:03.444Z,8.28
2017-05-02T03:52:43.834Z,8.31
2017-05-02T03:53:24.821Z,8.24
2017-05-02T03:54:05.784Z,8.35
2017-05-02T03:54:46.253Z,8.34
2017-05-02T03:55:26.669Z,8.31
2017-05-02T03:56:07.095Z,8.36
2017-05-02T03:56:47.526Z,8.32
2017-05-02T03:57:27.901Z,8.21
2017-05-02T03:58:08.340Z,8.2
2017-05-02T03:58:48.862Z,8.23
2017-05-02T03:59:29.137Z,8.31
2017-05-02T04:00:09.611Z,8.23
2017-05-02T04:00:50.021Z,8.17
2017-05-02T04:01:30.435Z,8.26
2017-05-02T04:02:10.837Z,8.23
2017-05-02T04:02:52.113Z,8.24
2017-05-02T04:03:32.530Z,8.18
2017-05-02T04:04:12.945Z,8.18
2017-05-02T04:04:53.359Z,8.24
2017-05-02T04:05:34.743Z,8.24
2017-05-02T04:06:15.146Z,8.23
2017-05-02T04:06:58.242Z,8.23
2017-05-02T04:07:38.636Z,8.23
2017-05-02T04:08:19.079Z,8.27
2017-05-02T04:08:59.465Z,8.16
2017-05-02T04:09:39.852Z,8.18
2017-05-02T04:10:20.331Z,8.16
2017-05-02T04:11:00.733Z,8.13
2017-05-02T04:11:41.125Z,8.26
2017-05-02T04:12:21.542Z,8.16
2017-05-02T04:13:01.934Z,8.26
2017-05-02T04:13:43.121Z,8.13
2017-05-02T04:14:23.526Z,8.16
2017-05-02T04:15:03.957Z,8.14
2017-05-02T04:15:44.395Z,8.06
2017-05-02T04:16:24.853Z,8.18
2017-05-02T04:17:05.290Z,8.13
2017-05-02T04:17:45.665Z,8.18
2017-05-02T04:18:26.058Z,8.02
2017-05-02T04:19:06.507Z,8.16
2017-05-02T04:19:46.900Z,8.14
2017-05-02T04:20:27.309Z,8.14
2017-05-02T04:21:08.390Z,8.13
2017-05-02T04:21:48.760Z,8.16
2017-05-02T04:22:29.968Z,8.17
2017-05-02T04:23:10.380Z,8.16
2017-05-02T04:23:51.820Z,8.17
2017-05-02T04:24:32.263Z,8.14
2017-05-02T04:25:12.651Z,8.16
2017-05-02T04:25:53.077Z,8.09
2017-05-02T04:26:33.480Z,8.18
2017-05-02T04:27:13.906Z,8.13
2017-05-02T04:27:54.314Z,8.21
2017-05-02T04:28:34.711Z,8.11
2017-05-02T04:29:15.108Z,8.16
2017-05-02T04:29:55.554Z,8.14
2017-05-02T04:30:35.962Z,8.14
2017-05-02T04:31:16.378Z,8.17
2017-05-02T04:31:56.765Z,8.23
2017-05-02T04:32:38.967Z,8.16
2017-05-02T04:33:19.376Z,8.17
2017-05-02T04:34:00.303Z,8.14
2017-05-02T04:34:40.724Z,8.11
2017-05-02T04:35:21.073Z,8.17
2017-05-02T04:36:01.504Z,8.14
2017-05-02T04:36:41.909Z,8.17
2017-05-02T04:37:22.307Z,8.11
2017-05-02T04:38:02.746Z,8.18
2017-05-02T04:38:43.158Z,8.14
2017-05-02T04:39:23.568Z,8.11
2017-05-02T04:40:04.004Z,8.13
2017-05-02T04:40:44.448Z,8.14
2017-05-02T04:41:24.841Z,8.14
2017-05-02T04:42:05.254Z,8.09
2017-05-02T04:42:45.642Z,8.14
2017-05-02T04:43:26.036Z,8.11
2017-05-02T04:44:06.431Z,8.13
2017-05-02T04:44:46.893Z,8.2
2017-05-02T04:45:27.314Z,8.08
2017-05-02T04:46:07.718Z,8.16
2017-05-02T04:46:48.149Z,8.14
2017-05-02T04:47:28.553Z,8.16
2017-05-02T04:48:08.990Z,8.11
2017-05-02T04:48:50.222Z,8.13
2017-05-02T04:49:30.629Z,8.09
2017-05-02T04:50:11.031Z,8.02
2017-05-02T04:50:51.510Z,8.2
2017-05-02T04:51:31.846Z,8.13
2017-05-02T04:52:12.317Z,8.13
2017-05-02T04:52:52.840Z,8.14
2017-05-02T04:53:33.208Z,8.09
2017-05-02T04:54:14.143Z,8.14
2017-05-02T04:54:54.586Z,8.09
2017-05-02T04:55:35.295Z,8.09
2017-05-02T04:56:15.738Z,8.08
2017-05-02T04:56:56.220Z,8.08
2017-05-02T04:57:36.618Z,8.09
2017-05-02T04:58:17.852Z,8.18
2017-05-02T04:58:58.259Z,8.17
2017-05-02T04:59:40.617Z,8.16
2017-05-02T05:00:21.043Z,8.14
2017-05-02T05:01:01.461Z,8.11
2017-05-02T05:01:41.872Z,8.14
2017-05-02T05:02:22.301Z,8.08
2017-05-02T05:03:02.741Z,8.09
2017-05-02T05:03:43.137Z,8.18
2017-05-02T05:04:23.573Z,8.17
2017-05-02T05:05:03.927Z,8.13
2017-05-02T05:05:44.324Z,8.14
2017-05-02T05:06:24.764Z,8.09
2017-05-02T05:07:07.873Z,8.09
2017-05-02T05:07:48.279Z,8.17
2017-05-02T05:08:28.701Z,8.14
2017-05-02T05:09:09.117Z,8.08
2017-05-02T05:09:49.540Z,8.05
2017-05-02T05:10:29.941Z,8.16
2017-05-02T05:11:10.376Z,8.08
2017-05-02T05:11:50.795Z,8.06
2017-05-02T05:12:31.214Z,8.09
2017-05-02T05:13:11.622Z,8.09
2017-05-02T05:13:52.025Z,8.09
2017-05-02T05:14:32.439Z,7.98
2017-05-02T05:15:13.795Z,8.17
2017-05-02T05:15:54.228Z,8.09
2017-05-02T05:16:35.335Z,8.08
2017-05-02T05:17:15.719Z,8.08
2017-05-02T05:17:56.151Z,8.06
2017-05-02T05:18:36.550Z,8.09
2017-05-02T05:19:16.956Z,8.11
2017-05-02T05:19:58.305Z,8.13
2017-05-02T05:20:38.751Z,8.06
2017-05-02T05:21:19.156Z,8.09
2017-05-02T05:21:59.550Z,8.13
2017-05-02T05:22:39.981Z,8.06
2017-05-02T05:23:20.399Z,8.08
2017-05-02T05:24:01.331Z,8.05
2017-05-02T05:24:41.714Z,8.06
2017-05-02T05:25:22.245Z,8.06
2017-05-02T05:26:02.597Z,8.05
2017-05-02T05:26:43.019Z,8.05
2017-05-02T05:27:23.396Z,8.03
2017-05-02T05:28:03.835Z,8.06
2017-05-02T05:28:44.286Z,8.08
2017-05-02T05:29:25.522Z,8.05
2017-05-02T05:30:05.983Z,8.02
2017-05-02T05:30:48.259Z,8.02
2017-05-02T05:31:28.688Z,8.06
2017-05-02T05:32:09.140Z,8.01
2017-05-02T05:32:50.312Z,8.03
2017-05-02T05:33:30.724Z,8.03
2017-05-02T05:34:11.174Z,8.03
2017-05-02T05:34:51.541Z,8.02
2017-05-02T05:35:32.911Z,8.08
2017-05-02T05:36:14.125Z,8.09
2017-05-02T05:36:56.172Z,8.06
2017-05-02T05:37:36.590Z,8.11
2017-05-02T05:38:17.813Z,8.13
2017-05-02T05:38:58.227Z,8.06
2017-05-02T05:39:38.677Z,8.16
2017-05-02T05:40:19.076Z,8.08
2017-05-02T05:40:59.481Z,8.14
2017-05-02T05:41:39.909Z,8.08
2017-05-02T05:42:20.283Z,8.11
2017-05-02T05:43:01.361Z,8.11
2017-05-02T05:43:41.846Z,8.09
2017-05-02T05:44:23.305Z,8.05
2017-05-02T05:45:04.512Z,8.08
2017-05-02T05:45:44.898Z,8.14
2017-05-02T05:46:25.287Z,8.14
2017-05-02T05:47:05.869Z,8.14
2017-05-02T05:47:47.245Z,8.21
2017-05-02T05:48:27.432Z,8.09
2017-05-02T05:49:07.827Z,8.17
2017-05-02T05:49:48.891Z,8.17
2017-05-02T05:50:30.304Z,8.13
2017-05-02T05:51:10.720Z,8.2
2017-05-02T05:51:51.549Z,8.27
2017-05-02T05:52:31.944Z,8.24
2017-05-02T05:53:12.330Z,8.26
2017-05-02T05:53:53.272Z,8.26
2017-05-02T05:54:33.755Z,8.24
2017-05-02T05:55:14.261Z,8.27
2017-05-02T05:55:54.734Z,8.18
2017-05-02T05:56:35.139Z,8.23
2017-05-02T05:57:15.770Z,8.21
2017-05-02T05:57:56.159Z,8.2
2017-05-02T05:58:37.366Z,8.24
2017-05-02T05:59:17.772Z,8.28
2017-05-02T05:59:58.287Z,8.23
2017-05-02T06:00:39.472Z,8.26
2017-05-02T06:01:19.875Z,8.17
2017-05-02T06:02:01.484Z,8.17
2017-05-02T06:02:42.593Z,8.23
2017-05-02T06:03:23.119Z,8.26
2017-05-02T06:04:03.867Z,8.24
2017-05-02T06:04:44.215Z,8.26
2017-05-02T06:05:26.392Z,8.21
2017-05-02T06:06:08.646Z,8.2
2017-05-02T06:06:49.047Z,8.26
2017-05-02T06:07:29.546Z,8.23
2017-05-02T06:08:09.926Z,8.23
2017-05-02T06:08:50.906Z,8.21
2017-05-02T06:09:31.361Z,8.18
2017-05-02T06:10:11.764Z,8.21
2017-05-02T06:10:52.289Z,8.24
2017-05-02T06:11:33.411Z,8.32
2017-05-02T06:12:13.807Z,8.21
2017-05-02T06:12:54.731Z,8.21
2017-05-02T06:13:35.129Z,8.23
2017-05-02T06:14:15.615Z,8.31
2017-05-02T06:14:55.994Z,8.23
2017-05-02T06:15:37.134Z,8.21
2017-05-02T06:16:17.607Z,8.27
2017-05-02T06:16:58.035Z,8.28
2017-05-02T06:17:38.502Z,8.28
2017-05-02T06:18:18.911Z,8.28
2017-05-02T06:18:59.335Z,8.21
2017-05-02T06:19:39.723Z,8.31
2017-05-02T06:20:20.929Z,8.21
2017-05-02T06:21:01.975Z,8.35
2017-05-02T06:21:42.383Z,8.34
2017-05-02T06:22:22.805Z,8.32
2017-05-02T06:23:03.248Z,8.23
2017-05-02T06:23:43.683Z,8.26
2017-05-02T06:24:24.106Z,8.28
2017-05-02T06:25:04.502Z,8.31
2017-05-02T06:25:44.894Z,8.34
2017-05-02T06:26:25.290Z,8.35
2017-05-02T06:27:06.441Z,8.32
2017-05-02T06:27:46.866Z,8.34
2017-05-02T06:28:27.302Z,8.31
2017-05-02T06:29:07.717Z,8.32
2017-05-02T06:29:48.199Z,8.31
2017-05-02T06:30:28.616Z,8.35
2017-05-02T06:31:09.047Z,8.31
2017-05-02T06:31:50.318Z,8.32
2017-05-02T06:32:30.727Z,8.38
2017-05-02T06:33:11.151Z,8.28
2017-05-02T06:33:51.508Z,8.26
2017-05-02T06:34:31.967Z,8.34
2017-05-02T06:35:12.336Z,8.32
2017-05-02T06:35:52.750Z,8.35
2017-05-02T06:36:33.245Z,8.35
2017-05-02T06:37:13.698Z,8.41
2017-05-02T06:37:54.076Z,8.35
2017-05-02T06:38:34.449Z,8.36
2017-05-02T06:39:15.751Z,8.35
2017-05-02T06:39:56.899Z,8.34
2017-05-02T06:40:37.315Z,8.39
2017-05-02T06:41:19.141Z,8.34
2017-05-02T06:41:59.639Z,8.32
2017-05-02T06:42:40.054Z,8.39
2017-05-02T06:43:21.267Z,8.35
2017-05-02T06:44:01.700Z,8.28
2017-05-02T06:44:42.068Z,8.35
2017-05-02T06:45:22.468Z,8.34
2017-05-02T06:46:02.933Z,8.36
2017-05-02T06:46:43.289Z,8.34
2017-05-02T06:47:23.726Z,8.23
2017-05-02T06:48:04.161Z,8.31
2017-05-02T06:48:44.551Z,8.32
2017-05-02T06:49:24.954Z,8.35
2017-05-02T06:50:05.380Z,8.32
2017-05-02T06:50:45.825Z,8.35
2017-05-02T06:51:26.450Z,8.38
2017-05-02T06:52:07.541Z,8.35
2017-05-02T06:52:47.843Z,8.28
2017-05-02T06:53:28.247Z,8.35
2017-05-02T06:54:08.684Z,8.31
2017-05-02T06:54:49.115Z,8.32
2017-05-02T06:55:29.526Z,8.26
2017-05-02T06:56:09.973Z,8.34
2017-05-02T06:58:23.005Z,8.44
2017-05-02T06:59:03.954Z,8.41
2017-05-02T06:59:44.323Z,8.44
2017-05-02T07:00:24.711Z,8.44
2017-05-02T07:01:05.113Z,8.35
2017-05-02T07:01:45.496Z,8.39
2017-05-02T07:02:25.943Z,8.35
2017-05-02T07:03:06.286Z,8.35
2017-05-02T07:03:46.683Z,8.44
2017-05-02T07:04:27.046Z,8.46
2017-05-02T07:05:07.454Z,8.46
2017-05-02T07:05:47.935Z,8.45
2017-05-02T07:06:28.276Z,8.45
2017-05-02T07:07:08.728Z,8.45
2017-05-02T07:07:49.160Z,8.44
2017-05-02T07:08:29.542Z,8.46
2017-05-02T07:09:09.987Z,8.41
2017-05-02T07:09:50.424Z,8.45
2017-05-02T07:10:30.805Z,8.28
2017-05-02T07:11:11.198Z,8.32
2017-05-02T07:11:51.610Z,8.32
2017-05-02T07:12:32.862Z,8.44
2017-05-02T07:13:13.290Z,8.34
2017-05-02T07:13:53.727Z,8.31
2017-05-02T07:14:34.119Z,8.35
2017-05-02T07:15:14.604Z,8.35
2017-05-02T07:15:57.861Z,8.34
2017-05-02T07:16:38.283Z,8.35
2017-05-02T07:17:18.725Z,8.32
2017-05-02T07:17:59.179Z,8.32
2017-05-02T07:18:39.568Z,8.31
2017-05-02T07:19:20.590Z,8.31
2017-05-02T07:20:00.994Z,8.35
2017-05-02T07:20:41.409Z,8.35
2017-05-02T07:21:22.885Z,8.32
2017-05-02T07:22:04.141Z,8.39
2017-05-02T07:22:44.551Z,8.38
2017-05-02T07:23:24.979Z,8.42
2017-05-02T07:24:05.447Z,8.44
2017-05-02T07:24:45.874Z,8.45
2017-05-02T07:25:26.374Z,8.32
2017-05-02T07:26:06.752Z,8.38
2017-05-02T07:26:47.299Z,8.39
2017-05-02T07:27:27.730Z,8.39
2017-05-02T07:28:08.098Z,8.41
2017-05-02T07:28:48.527Z,8.42
2017-05-02T07:29:29.065Z,8.42
2017-05-02T07:30:09.479Z,8.41
2017-05-02T07:30:49.884Z,8.44
2017-05-02T07:31:30.277Z,8.39
2017-05-02T07:32:10.722Z,8.45
2017-05-02T07:32:51.072Z,8.46
2017-05-02T07:33:31.519Z,8.45
2017-05-02T07:34:11.871Z,8.42
2017-05-02T07:34:52.278Z,8.42
2017-05-02T07:35:32.723Z,8.38
2017-05-02T07:36:13.111Z,8.34
2017-05-02T07:36:54.461Z,8.28
2017-05-02T07:37:35.679Z,8.28
2017-05-02T07:38:16.465Z,8.35
2017-05-02T07:38:58.072Z,8.38
2017-05-02T07:39:38.705Z,8.41
2017-05-02T07:40:19.624Z,8.31
2017-05-02T07:41:01.391Z,8.41
2017-05-02T07:41:42.255Z,8.41
2017-05-02T07:42:22.739Z,8.36
2017-05-02T07:43:03.704Z,8.38
2017-05-02T07:43:44.999Z,8.38
2017-05-02T07:44:25.378Z,8.39
2017-05-02T07:46:13.005Z,8.45
2017-05-02T07:48:27.286Z,8.46
2017-05-02T07:49:07.670Z,8.45
2017-05-02T07:49:48.661Z,8.45
2017-05-02T07:50:30.422Z,8.49
2017-05-02T07:52:45.817Z,8.46
2017-05-02T07:54:59.033Z,8.44
2017-05-02T07:55:42.552Z,8.45
2017-05-02T07:56:22.569Z,8.49
2017-05-02T07:57:03.766Z,8.49
2017-05-02T07:57:47.476Z,8.49
2017-05-02T07:58:27.841Z,8.42
2017-05-02T07:59:08.942Z,8.39
2017-05-02T07:59:49.355Z,8.39
2017-05-02T08:00:29.755Z,8.38
2017-05-02T08:01:11.461Z,8.36
2017-05-02T08:01:53.453Z,8.41
2017-05-02T08:02:34.704Z,8.42
2017-05-02T08:03:15.729Z,8.44
2017-05-02T08:03:56.631Z,8.45
2017-05-02T08:04:36.996Z,8.41
2017-05-02T08:05:17.406Z,8.44
2017-05-02T08:05:57.867Z,8.49
2017-05-02T08:06:39.111Z,8.45
2017-05-02T08:07:20.050Z,8.42
2017-05-02T08:08:00.518Z,8.45
2017-05-02T08:08:42.463Z,8.45
2017-05-02T08:09:22.877Z,8.44
2017-05-02T08:10:03.229Z,8.53
2017-05-02T08:10:43.683Z,8.52
2017-05-02T08:11:24.119Z,8.52
2017-05-02T08:12:04.536Z,8.54
2017-05-02T08:12:45.808Z,8.61
2017-05-02T08:13:26.234Z,8.56
2017-05-02T08:14:07.132Z,8.6
2017-05-02T08:14:49.490Z,8.63
2017-05-02T08:15:29.880Z,8.66
2017-05-02T08:16:10.954Z,8.71
2017-05-02T08:16:52.190Z,8.75
2017-05-02T08:17:32.562Z,8.75
2017-05-02T08:18:14.679Z,8.78
2017-05-02T08:20:29.839Z,8.77
2017-05-02T08:21:11.242Z,8.82
2017-05-02T08:21:51.639Z,8.82
2017-05-02T08:22:32.037Z,8.87
2017-05-02T08:23:13.280Z,8.82
2017-05-02T08:23:55.200Z,8.79
2017-05-02T08:24:35.639Z,8.89
2017-05-02T08:25:16.924Z,8.82
2017-05-02T08:25:57.417Z,8.75
2017-05-02T08:26:38.733Z,8.77
2017-05-02T08:27:19.135Z,8.74
2017-05-02T08:27:59.576Z,8.71
2017-05-02T08:28:40.035Z,8.81
2017-05-02T08:29:20.403Z,8.71
2017-05-02T08:30:00.880Z,8.89
2017-05-02T08:30:41.273Z,8.82
2017-05-02T08:31:22.486Z,8.84
2017-05-02T08:32:02.852Z,8.87
2017-05-02T08:32:43.744Z,8.86
2017-05-02T08:33:24.898Z,8.96
2017-05-02T08:34:05.341Z,8.87
2017-05-02T08:34:47.171Z,8.87
2017-05-02T08:35:27.657Z,8.87
2017-05-02T08:36:08.754Z,8.95
2017-05-02T08:36:49.139Z,8.87
2017-05-02T08:37:29.526Z,8.9
2017-05-02T08:38:10.047Z,8.93
2017-05-02T08:38:50.438Z,8.87
2017-05-02T08:39:30.896Z,8.82
2017-05-02T08:40:11.376Z,8.81
2017-05-02T08:40:52.405Z,8.78
2017-05-02T08:41:34.221Z,8.87
2017-05-02T08:42:15.694Z,8.86
2017-05-02T08:42:56.950Z,8.84
2017-05-02T08:43:37.374Z,8.81
2017-05-02T08:44:17.802Z,8.81
2017-05-02T08:44:58.217Z,8.81
2017-05-02T08:45:39.664Z,8.79
2017-05-02T08:46:20.571Z,8.81
2017-05-02T08:47:01.029Z,8.78
2017-05-02T08:47:41.474Z,8.9
2017-05-02T08:48:21.813Z,8.81
2017-05-02T08:49:02.216Z,8.86
2017-05-02T08:49:43.407Z,8.86
2017-05-02T08:50:24.650Z,8.82
2017-05-02T08:51:05.094Z,8.87
2017-05-02T08:51:45.508Z,8.82
2017-05-02T08:52:25.897Z,8.87
2017-05-02T08:53:06.313Z,8.87
2017-05-02T08:53:47.565Z,8.86
2017-05-02T08:54:28.724Z,8.92
2017-05-02T08:55:09.167Z,8.87
2017-05-02T08:55:49.617Z,8.92
2017-05-02T08:56:30.036Z,8.87
2017-05-02T08:57:10.486Z,8.92
2017-05-02T08:57:51.791Z,8.97
2017-05-02T08:58:32.244Z,8.96
2017-05-02T08:59:12.644Z,8.97
2017-05-02T08:59:53.081Z,9.09
2017-05-02T09:00:33.479Z,9.08
2017-05-02T09:01:13.898Z,9.12
2017-05-02T09:01:54.355Z,9.16
2017-05-02T09:02:35.337Z,9.18
2017-05-02T09:03:16.380Z,9.21
2017-05-02T09:03:57.693Z,9.18
2017-05-02T09:04:38.790Z,9.16
2017-05-02T09:05:19.769Z,9.13
2017-05-02T09:06:00.182Z,9.08
2017-05-02T09:06:40.549Z,8.97
2017-05-02T09:07:21.602Z,9.02
2017-05-02T09:08:05.672Z,9.08
2017-05-02T09:08:46.145Z,9.05
2017-05-02T09:09:28.088Z,9.12
2017-05-02T09:10:08.537Z,9.08
2017-05-02T09:10:49.653Z,9
2017-05-02T09:34:04.903Z,8.82
2017-05-02T09:34:46.361Z,8.89
2017-05-02T09:35:27.368Z,8.87
2017-05-02T09:36:07.762Z,8.97
2017-05-02T09:36:48.283Z,8.82
2017-05-02T09:37:31.214Z,8.93
2017-05-02T09:38:11.664Z,8.95
2017-05-02T09:38:53.023Z,8.93
2017-05-02T09:39:34.073Z,8.89
2017-05-02T09:40:15.257Z,8.82
2017-05-02T09:40:59.414Z,8.9
2017-05-02T09:41:40.766Z,8.87
2017-05-02T09:42:22.782Z,8.93
2017-05-02T09:43:03.125Z,8.89
2017-05-02T09:43:45.243Z,8.9
2017-05-02T09:44:25.650Z,8.86
2017-05-02T09:45:06.062Z,8.86
2017-05-02T09:45:47.408Z,8.9
2017-05-02T09:46:27.812Z,8.96
2017-05-02T09:47:11.723Z,8.87
2017-05-02T09:47:52.250Z,8.87
2017-05-02T09:48:32.761Z,8.89
2017-05-02T09:49:13.945Z,8.93
2017-05-02T09:49:55.739Z,8.87
2017-05-02T09:50:38.815Z,8.89
2017-05-02T09:51:20.010Z,8.95
2017-05-02T09:52:03.456Z,8.87
2017-05-02T09:52:43.835Z,8.89
2017-05-02T09:53:24.186Z,8.95
2017-05-02T09:54:04.563Z,8.97
2017-05-02T09:54:45.017Z,8.95
2017-05-02T09:55:26.837Z,9
2017-05-02T09:56:07.928Z,9.09